Time;durP1;ratioP1;P1;durP2;ratioP2;P2;SDS_P1;SDS_P2;PMS_P1;PMS_P2;Temp;Humidity;BMP_temperature;BMP_pressure;BME280_temperature;BME280_humidity;BME280_pressure;Samples;Min_cycle;Max_cycle;Signal;HPM_P1;HPM_P2
2022/12/03 00:02:17;;;;;;;39.97;14.63;;;;;;;;;;5029326;28;20021;-58
2022/12/03 00:04:42;;;;;;;37.97;13.80;;;;;;;;;;5029185;28;20021;-58
2022/12/03 00:07:07;;;;;;;36.23;13.37;;;;;;;;;;5029383;28;20065;-59
2022/12/03 00:09:33;;;;;;;35.53;13.23;;;;;;;;;;5028067;28;20472;-59
2022/12/03 00:11:58;;;;;;;38.40;14.17;;;;;;;;;;5027135;28;20128;-58
2022/12/03 00:14:23;;;;;;;36.90;12.73;;;;;;;;;;5027603;28;20487;-59
2022/12/03 00:16:48;;;;;;;36.10;13.70;;;;;;;;;;5029875;28;20022;-58
2022/12/03 00:19:13;;;;;;;45.23;15.43;;;;;;;;;;5027988;28;20047;-59
2022/12/03 00:21:38;;;;;;;38.40;14.20;;;;;;;;;;5027972;28;20075;-59
2022/12/03 00:24:04;;;;;;;40.50;14.20;;;;;;;;;;5029483;28;20032;-58
2022/12/03 00:26:29;;;;;;;36.63;13.63;;;;;;;;;;5029280;28;20390;-59
2022/12/03 00:28:54;;;;;;;39.97;14.37;;;;;;;;;;5027668;28;20456;-59
2022/12/03 00:31:22;;;;;;;39.90;14.97;;;;;;;;;;5029836;28;20108;-58
2022/12/03 00:33:47;;;;;;;44.15;16.10;;;;;;;;;;5029239;28;20045;-58
2022/12/03 00:36:12;;;;;;;36.77;14.47;;;;;;;;;;5029367;28;20064;-58
2022/12/03 00:38:37;;;;;;;39.27;14.57;;;;;;;;;;5029519;28;20040;-58
2022/12/03 00:41:02;;;;;;;40.77;14.80;;;;;;;;;;5023911;28;20021;-58
2022/12/03 00:43:27;;;;;;;36.77;14.33;;;;;;;;;;5027518;28;20026;-58
2022/12/03 00:45:53;;;;;;;40.07;14.83;;;;;;;;;;5031093;28;20044;-58
2022/12/03 00:48:18;;;;;;;43.90;15.10;;;;;;;;;;5033254;28;20030;-59
2022/12/03 00:50:43;;;;;;;38.70;14.03;;;;;;;;;;5029041;28;20029;-59
2022/12/03 00:53:08;;;;;;;40.40;14.30;;;;;;;;;;5030990;28;20033;-59
2022/12/03 00:55:33;;;;;;;40.37;14.60;;;;;;;;;;5031804;28;20029;-58
2022/12/03 00:57:58;;;;;;;41.27;14.17;;;;;;;;;;5031814;28;20070;-58
2022/12/03 01:00:24;;;;;;;40.23;15.40;;;;;;;;;;5029628;28;20437;-57
2022/12/03 01:02:52;;;;;;;41.67;14.95;;;;;;;;;;5028461;28;20052;-58
2022/12/03 01:05:18;;;;;;;41.13;14.35;;;;;;;;;;5027738;28;20070;-58
2022/12/03 01:07:44;;;;;;;37.67;14.05;;;;;;;;;;5029316;28;20112;-57
2022/12/03 01:10:09;;;;;;;39.30;14.40;;;;;;;;;;5032396;28;20022;-58
2022/12/03 01:12:34;;;;;;;36.70;13.82;;;;;;;;;;5029433;28;20064;-57
2022/12/03 01:15:00;;;;;;;38.67;14.33;;;;;;;;;;5030848;28;20052;-58
2022/12/03 01:17:25;;;;;;;40.70;14.63;;;;;;;;;;5030901;28;20534;-57
2022/12/03 01:19:51;;;;;;;40.03;14.33;;;;;;;;;;5031718;28;20014;-57
2022/12/03 01:22:16;;;;;;;42.17;14.32;;;;;;;;;;5027779;28;20036;-57
2022/12/03 01:24:41;;;;;;;37.43;14.37;;;;;;;;;;5031851;28;20025;-57
2022/12/03 01:27:07;;;;;;;37.23;12.90;;;;;;;;;;5031377;28;20838;-58
2022/12/03 01:29:32;;;;;;;37.90;14.00;;;;;;;;;;5030604;28;20033;-58
2022/12/03 01:32:15;;;;;;;38.87;14.60;;;;;;;;;;5030129;28;20684;-57
2022/12/03 01:34:41;;;;;;;40.85;14.80;;;;;;;;;;5027292;28;20103;-57
2022/12/03 01:37:06;;;;;;;39.20;13.57;;;;;;;;;;5030579;28;20024;-58
2022/12/03 01:39:32;;;;;;;36.50;14.13;;;;;;;;;;5031551;28;20018;-59
2022/12/03 01:41:57;;;;;;;38.13;14.47;;;;;;;;;;5030000;28;20014;-58
2022/12/03 01:44:27;;;;;;;41.95;15.70;;;;;;;;;;5029215;28;20056;-58
2022/12/03 01:46:53;;;;;;;37.40;13.48;;;;;;;;;;5031665;28;20432;-58
2022/12/03 01:49:21;;;;;;;34.63;12.85;;;;;;;;;;5030872;28;20032;-58
2022/12/03 01:51:47;;;;;;;37.75;13.63;;;;;;;;;;5029933;28;20060;-58
2022/12/03 01:54:18;;;;;;;40.15;14.75;;;;;;;;;;5028359;28;20108;-58
2022/12/03 01:56:43;;;;;;;38.30;16.05;;;;;;;;;;5029369;28;20022;-59
2022/12/03 01:59:12;;;;;;;36.63;13.35;;;;;;;;;;5031091;28;20041;-58
2022/12/03 02:01:37;;;;;;;39.60;14.50;;;;;;;;;;5030890;28;20017;-57
2022/12/03 02:04:02;;;;;;;42.00;14.97;;;;;;;;;;5026691;28;20082;-57
2022/12/03 02:06:28;;;;;;;39.87;15.23;;;;;;;;;;5031635;28;20120;-58
2022/12/03 02:08:58;;;;;;;35.28;13.55;;;;;;;;;;5028795;28;20035;-58
2022/12/03 02:11:34;;;;;;;37.28;13.85;;;;;;;;;;5030612;28;20087;-58
2022/12/03 02:14:01;;;;;;;37.53;13.40;;;;;;;;;;5028372;28;20052;-57
2022/12/03 02:16:27;;;;;;;35.92;13.63;;;;;;;;;;5011155;28;20504;-57
2022/12/03 02:18:52;;;;;;;36.33;13.15;;;;;;;;;;5021140;28;20022;-57
2022/12/03 02:21:31;;;;;;;41.47;14.30;;;;;;;;;;5031523;28;20067;-57
2022/12/03 02:24:02;;;;;;;36.88;13.80;;;;;;;;;;5031048;28;20021;-58
2022/12/03 02:26:28;;;;;;;38.22;14.15;;;;;;;;;;5029684;28;20021;-57
2022/12/03 02:28:53;;;;;;;40.60;14.52;;;;;;;;;;5030905;28;20155;-58
2022/12/03 02:31:19;;;;;;;36.37;13.40;;;;;;;;;;5031097;28;20385;-58
2022/12/03 02:33:44;;;;;;;36.60;14.33;;;;;;;;;;5030968;28;20013;-58
2022/12/03 02:36:09;;;;;;;39.20;14.20;;;;;;;;;;5029539;28;20040;-58
2022/12/03 02:38:35;;;;;;;39.88;14.65;;;;;;;;;;5030964;28;20039;-57
2022/12/03 02:41:03;;;;;;;31.73;13.10;;;;;;;;;;5030596;28;20036;-58
2022/12/03 02:43:28;;;;;;;34.10;12.55;;;;;;;;;;5030632;28;20028;-58
2022/12/03 02:45:54;;;;;;;34.50;13.70;;;;;;;;;;5029461;28;20025;-58
2022/12/03 02:48:19;;;;;;;35.75;12.82;;;;;;;;;;5031254;28;20037;-58
2022/12/03 02:50:46;;;;;;;42.92;16.00;;;;;;;;;;5029067;28;20143;-58
2022/12/03 02:53:14;;;;;;;38.78;14.20;;;;;;;;;;5029828;28;20037;-58
2022/12/03 02:55:39;;;;;;;36.72;14.02;;;;;;;;;;5030579;28;20075;-58
2022/12/03 02:58:04;;;;;;;36.20;13.65;;;;;;;;;;5030608;28;20025;-58
2022/12/03 03:00:30;;;;;;;35.80;12.87;;;;;;;;;;5030450;28;20492;-57
2022/12/03 03:02:55;;;;;;;35.77;13.50;;;;;;;;;;5028430;28;20492;-59
2022/12/03 03:05:22;;;;;;;40.63;14.57;;;;;;;;;;5030444;28;20048;-59
2022/12/03 03:07:47;;;;;;;36.70;14.40;;;;;;;;;;5029436;28;20033;-57
2022/12/03 03:10:14;;;;;;;34.13;14.20;;;;;;;;;;5030239;28;20025;-58
2022/12/03 03:12:39;;;;;;;37.40;14.55;;;;;;;;;;5030028;28;20497;-57
2022/12/03 03:15:05;;;;;;;37.47;13.95;;;;;;;;;;5026101;28;20037;-57
2022/12/03 03:17:30;;;;;;;33.67;12.48;;;;;;;;;;5027501;28;20469;-57
2022/12/03 03:19:55;;;;;;;38.83;13.70;;;;;;;;;;5029125;28;20116;-57
2022/12/03 03:22:21;;;;;;;44.93;16.90;;;;;;;;;;5028703;28;20033;-58
2022/12/03 03:24:46;;;;;;;35.83;14.33;;;;;;;;;;5028282;28;20508;-57
2022/12/03 03:27:11;;;;;;;38.95;14.50;;;;;;;;;;5028772;28;20521;-57
2022/12/03 03:29:36;;;;;;;43.97;15.30;;;;;;;;;;5029891;28;20029;-58
2022/12/03 03:32:02;;;;;;;36.07;14.77;;;;;;;;;;5028867;28;20021;-57
2022/12/03 03:34:27;;;;;;;38.20;14.60;;;;;;;;;;5028014;28;20025;-57
2022/12/03 03:36:52;;;;;;;35.28;13.35;;;;;;;;;;5029087;28;20108;-58
2022/12/03 03:39:18;;;;;;;37.80;13.73;;;;;;;;;;5030133;28;20018;-58
2022/12/03 03:41:44;;;;;;;40.03;14.53;;;;;;;;;;5030275;28;20029;-58
2022/12/03 03:44:09;;;;;;;32.38;12.63;;;;;;;;;;5029431;28;20026;-58
2022/12/03 03:46:36;;;;;;;38.73;14.80;;;;;;;;;;5028246;28;20029;-59
2022/12/03 03:49:02;;;;;;;37.70;14.65;;;;;;;;;;5029878;28;20101;-58
2022/12/03 03:51:27;;;;;;;38.50;14.65;;;;;;;;;;5029683;28;20159;-57
2022/12/03 03:53:52;;;;;;;41.73;15.70;;;;;;;;;;5029918;28;20121;-57
2022/12/03 03:56:18;;;;;;;32.13;12.82;;;;;;;;;;5028043;28;20022;-60
2022/12/03 03:58:44;;;;;;;38.58;15.23;;;;;;;;;;5028236;28;20021;-58
2022/12/03 04:01:10;;;;;;;34.83;13.23;;;;;;;;;;5029503;28;20021;-59
2022/12/03 04:03:35;;;;;;;37.00;14.45;;;;;;;;;;5029751;28;20017;-59
2022/12/03 04:06:00;;;;;;;36.15;13.75;;;;;;;;;;5027877;28;20120;-58
2022/12/03 04:08:26;;;;;;;31.17;11.93;;;;;;;;;;5029862;28;20087;-58
2022/12/03 04:13:35;;;;;;;30.30;11.07;;;;;;;;;;5029525;28;20530;-58
2022/12/03 04:16:00;;;;;;;33.80;13.10;;;;;;;;;;5029340;28;20100;-59
2022/12/03 04:18:43;;;;;;;30.13;11.37;;;;;;;;;;5027745;28;20029;-57
2022/12/03 04:23:57;;;;;;;35.38;12.75;;;;;;;;;;5033396;28;20082;-58
2022/12/03 04:29:06;;;;;;;31.88;11.68;;;;;;;;;;5032512;28;20434;-59
2022/12/03 04:36:59;;;;;;;31.90;12.50;;;;;;;;;;5033101;28;20435;-59
2022/12/03 04:39:24;;;;;;;30.83;12.47;;;;;;;;;;5032476;28;20029;-57
2022/12/03 04:41:49;;;;;;;34.03;12.40;;;;;;;;;;5033118;28;20021;-58
2022/12/03 04:44:34;;;;;;;36.10;13.83;;;;;;;;;;5033237;28;20083;-58
2022/12/03 04:47:05;;;;;;;31.27;13.05;;;;;;;;;;5033108;28;20036;-58
2022/12/03 04:49:31;;;;;;;34.67;14.07;;;;;;;;;;5031238;28;20030;-58
2022/12/03 04:51:56;;;;;;;35.08;13.43;;;;;;;;;;5031345;28;20056;-58
2022/12/03 04:54:21;;;;;;;31.37;12.13;;;;;;;;;;5033014;28;20037;-59
2022/12/03 04:56:47;;;;;;;34.83;13.13;;;;;;;;;;5032911;28;20420;-58
2022/12/03 04:59:13;;;;;;;35.90;12.87;;;;;;;;;;5030789;28;20026;-58
2022/12/03 05:01:38;;;;;;;33.50;12.98;;;;;;;;;;5033096;28;20053;-58
2022/12/03 05:04:03;;;;;;;37.60;14.00;;;;;;;;;;5032663;28;20048;-57
2022/12/03 05:06:28;;;;;;;33.30;12.43;;;;;;;;;;5032845;28;20139;-57
2022/12/03 05:08:53;;;;;;;38.23;14.43;;;;;;;;;;5032094;28;20022;-58
2022/12/03 05:11:19;;;;;;;36.85;13.77;;;;;;;;;;5031385;28;20033;-58
2022/12/03 05:13:44;;;;;;;37.50;13.90;;;;;;;;;;5032421;28;20028;-58
2022/12/03 05:16:09;;;;;;;35.97;13.93;;;;;;;;;;5032117;28;20036;-58
2022/12/03 05:18:34;;;;;;;31.90;12.83;;;;;;;;;;5032547;28;20025;-56
2022/12/03 05:20:59;;;;;;;33.10;11.27;;;;;;;;;;5031214;28;20021;-59
2022/12/03 05:23:24;;;;;;;35.50;13.20;;;;;;;;;;5032310;28;20017;-58
2022/12/03 05:25:50;;;;;;;29.50;11.80;;;;;;;;;;5032057;28;20022;-59
2022/12/03 05:28:15;;;;;;;34.80;12.67;;;;;;;;;;5031846;28;20120;-58
2022/12/03 05:30:40;;;;;;;34.40;13.67;;;;;;;;;;5029429;28;20049;-58
2022/12/03 05:33:05;;;;;;;33.60;13.10;;;;;;;;;;5031980;28;20105;-58
2022/12/03 05:35:30;;;;;;;35.43;13.60;;;;;;;;;;5031999;28;20499;-58
2022/12/03 05:37:56;;;;;;;33.50;13.27;;;;;;;;;;5031050;28;20136;-58
2022/12/03 05:40:21;;;;;;;31.73;11.80;;;;;;;;;;5031007;28;20811;-58
2022/12/03 05:42:52;;;;;;;36.57;13.93;;;;;;;;;;5029824;28;20075;-59
2022/12/03 05:45:18;;;;;;;34.92;13.13;;;;;;;;;;5030456;28;20445;-59
2022/12/03 05:47:43;;;;;;;36.08;13.50;;;;;;;;;;5029792;28;20064;-61
2022/12/03 05:50:08;;;;;;;36.03;13.33;;;;;;;;;;5031485;28;20407;-58
2022/12/03 05:52:33;;;;;;;38.80;14.73;;;;;;;;;;5030303;28;20052;-58
2022/12/03 05:54:58;;;;;;;31.27;12.63;;;;;;;;;;5031748;28;20034;-58
2022/12/03 05:57:24;;;;;;;34.90;13.37;;;;;;;;;;5031549;28;20388;-57
2022/12/03 05:59:49;;;;;;;34.97;12.27;;;;;;;;;;5031466;28;20028;-57
2022/12/03 06:02:14;;;;;;;36.50;14.53;;;;;;;;;;5029567;28;20041;-58
2022/12/03 06:04:39;;;;;;;35.33;12.87;;;;;;;;;;5030221;28;20470;-58
2022/12/03 06:07:04;;;;;;;33.20;12.67;;;;;;;;;;5028878;28;20040;-58
2022/12/03 06:09:29;;;;;;;33.83;12.87;;;;;;;;;;5049530;28;20539;-58
2022/12/03 06:11:55;;;;;;;41.00;14.90;;;;;;;;;;5039119;28;20080;-59
2022/12/03 06:14:20;;;;;;;30.37;12.53;;;;;;;;;;5030902;28;20536;-58
2022/12/03 06:16:45;;;;;;;35.20;13.48;;;;;;;;;;5029524;28;20531;-58
2022/12/03 06:19:10;;;;;;;31.67;12.67;;;;;;;;;;5027367;28;20417;-57
2022/12/03 06:21:36;;;;;;;36.97;14.02;;;;;;;;;;5029495;28;20018;-57
2022/12/03 06:24:01;;;;;;;38.03;14.73;;;;;;;;;;5027361;28;20485;-58
2022/12/03 06:26:26;;;;;;;34.38;12.77;;;;;;;;;;5029107;28;20037;-57
2022/12/03 06:28:52;;;;;;;40.77;15.60;;;;;;;;;;5028964;28;20022;-58
2022/12/03 06:31:17;;;;;;;33.00;12.77;;;;;;;;;;5029064;28;20021;-57
2022/12/03 06:33:42;;;;;;;34.30;12.40;;;;;;;;;;5029047;28;20009;-58
2022/12/03 06:36:07;;;;;;;35.40;13.30;;;;;;;;;;5039981;28;20536;-58
2022/12/03 06:38:33;;;;;;;31.83;11.77;;;;;;;;;;5027063;28;20028;-58
2022/12/03 06:40:58;;;;;;;34.67;13.80;;;;;;;;;;5034872;28;20156;-58
2022/12/03 06:43:23;;;;;;;39.43;13.20;;;;;;;;;;5025288;28;20104;-58
2022/12/03 06:45:48;;;;;;;34.90;12.50;;;;;;;;;;5017273;28;20021;-58
2022/12/03 06:48:13;;;;;;;31.38;11.70;;;;;;;;;;5028467;28;20044;-57
2022/12/03 06:50:39;;;;;;;34.35;13.40;;;;;;;;;;5027468;28;20055;-59
2022/12/03 06:53:04;;;;;;;31.90;12.20;;;;;;;;;;5029765;28;20060;-57
2022/12/03 06:55:29;;;;;;;32.28;11.65;;;;;;;;;;5030179;28;20064;-58
2022/12/03 06:57:54;;;;;;;34.07;12.80;;;;;;;;;;5030349;28;20087;-58
2022/12/03 07:00:20;;;;;;;32.27;12.97;;;;;;;;;;5029892;28;20029;-58
2022/12/03 07:02:45;;;;;;;33.10;13.48;;;;;;;;;;5029010;28;20056;-58
2022/12/03 07:05:10;;;;;;;34.57;12.73;;;;;;;;;;5029965;28;20104;-58
2022/12/03 07:07:35;;;;;;;32.70;12.53;;;;;;;;;;5030219;28;20041;-58
2022/12/03 07:10:00;;;;;;;38.23;13.87;;;;;;;;;;5029967;28;20025;-58
2022/12/03 07:12:25;;;;;;;35.07;14.33;;;;;;;;;;5027294;28;20047;-57
2022/12/03 07:14:51;;;;;;;35.87;13.27;;;;;;;;;;5025306;28;20040;-57
2022/12/03 07:17:16;;;;;;;36.17;13.57;;;;;;;;;;5024821;28;20033;-58
2022/12/03 07:19:41;;;;;;;37.20;13.70;;;;;;;;;;5029360;28;20092;-58
2022/12/03 07:22:06;;;;;;;34.53;14.07;;;;;;;;;;5025863;28;21015;-58
2022/12/03 07:24:31;;;;;;;33.77;12.40;;;;;;;;;;5028333;28;20028;-58
2022/12/03 07:26:57;;;;;;;39.83;14.17;;;;;;;;;;5028595;28;20042;-58
2022/12/03 07:29:22;;;;;;;36.50;14.33;;;;;;;;;;5029745;28;20465;-58
2022/12/03 07:31:47;;;;;;;37.13;13.50;;;;;;;;;;5029976;28;20396;-59
2022/12/03 07:34:12;;;;;;;39.37;13.97;;;;;;;;;;5025109;28;20591;-58
2022/12/03 07:36:38;;;;;;;36.63;13.10;;;;;;;;;;5030133;28;20030;-57
2022/12/03 07:39:03;;;;;;;36.03;13.13;;;;;;;;;;5029248;28;20426;-58
2022/12/03 07:41:28;;;;;;;35.30;13.00;;;;;;;;;;5025769;28;20026;-56
2022/12/03 07:43:53;;;;;;;33.77;13.43;;;;;;;;;;5028190;28;20040;-57
2022/12/03 07:46:18;;;;;;;35.97;13.45;;;;;;;;;;5028987;28;20044;-58
2022/12/03 07:48:43;;;;;;;38.80;13.67;;;;;;;;;;5029528;28;20029;-58
2022/12/03 07:51:09;;;;;;;31.33;13.53;;;;;;;;;;5025486;28;20095;-58
2022/12/03 07:53:34;;;;;;;34.57;13.67;;;;;;;;;;5028630;28;20014;-57
2022/12/03 07:56:00;;;;;;;38.88;14.27;;;;;;;;;;5033837;28;20033;-58
2022/12/03 07:58:25;;;;;;;38.75;13.98;;;;;;;;;;5033082;28;20021;-58
2022/12/03 08:00:50;;;;;;;32.20;12.30;;;;;;;;;;5032889;28;20059;-59
2022/12/03 08:03:15;;;;;;;32.80;12.60;;;;;;;;;;5032243;28;20021;-58
2022/12/03 08:05:41;;;;;;;32.83;13.83;;;;;;;;;;5030737;28;20025;-58
2022/12/03 08:08:06;;;;;;;39.63;14.87;;;;;;;;;;5033271;28;20492;-58
2022/12/03 08:10:31;;;;;;;32.63;12.70;;;;;;;;;;5032536;28;20083;-58
2022/12/03 08:12:57;;;;;;;38.60;13.93;;;;;;;;;;5030953;28;20136;-58
2022/12/03 08:15:23;;;;;;;34.08;12.90;;;;;;;;;;5031981;28;20114;-57
2022/12/03 08:17:57;;;;;;;31.52;12.32;;;;;;;;;;5032652;28;20583;-59
2022/12/03 08:20:23;;;;;;;39.08;14.38;;;;;;;;;;5031734;28;20017;-58
2022/12/03 08:22:50;;;;;;;34.83;13.68;;;;;;;;;;5031719;28;20029;-58
2022/12/03 08:25:20;;;;;;;35.15;12.93;;;;;;;;;;5029306;28;20025;-59
2022/12/03 08:27:45;;;;;;;38.38;14.27;;;;;;;;;;5029775;28;20021;-58
2022/12/03 08:30:12;;;;;;;37.53;13.87;;;;;;;;;;5033504;28;20029;-59
2022/12/03 08:32:37;;;;;;;36.95;14.75;;;;;;;;;;5033541;28;20083;-57
2022/12/03 08:35:08;;;;;;;36.78;13.82;;;;;;;;;;5033713;28;20025;-58
2022/12/03 08:37:34;;;;;;;39.95;14.70;;;;;;;;;;5033475;28;20096;-57
2022/12/03 08:39:59;;;;;;;40.20;14.18;;;;;;;;;;5032293;28;20033;-58
2022/12/03 08:42:40;;;;;;;36.93;13.13;;;;;;;;;;5032314;28;20021;-58
2022/12/03 08:45:16;;;;;;;36.72;13.38;;;;;;;;;;5017301;28;20404;-59
2022/12/03 08:47:41;;;;;;;34.30;12.77;;;;;;;;;;5013574;28;20026;-59
2022/12/03 08:50:24;;;;;;;38.43;14.13;;;;;;;;;;5025366;28;20066;-57
2022/12/03 08:52:49;;;;;;;39.83;13.63;;;;;;;;;;5031913;28;20112;-58
2022/12/03 08:55:34;;;;;;;30.43;12.17;;;;;;;;;;5032943;28;20147;-58
2022/12/03 08:57:59;;;;;;;37.80;14.88;;;;;;;;;;5031867;28;20459;-57
2022/12/03 09:00:25;;;;;;;38.70;13.67;;;;;;;;;;5028909;28;20052;-58
2022/12/03 09:02:51;;;;;;;34.70;13.35;;;;;;;;;;5032740;28;20444;-58
2022/12/03 09:05:21;;;;;;;39.13;14.43;;;;;;;;;;5027530;28;20032;-57
2022/12/03 09:07:46;;;;;;;36.80;14.25;;;;;;;;;;5032457;28;20389;-58
2022/12/03 09:10:11;;;;;;;37.23;14.17;;;;;;;;;;5031643;28;20025;-58
2022/12/03 09:12:36;;;;;;;36.83;14.63;;;;;;;;;;5028409;28;20424;-57
2022/12/03 09:15:02;;;;;;;39.50;15.70;;;;;;;;;;5029067;28;20021;-58
2022/12/03 09:17:27;;;;;;;35.20;13.25;;;;;;;;;;5031018;28;20037;-58
2022/12/03 09:19:53;;;;;;;44.60;14.47;;;;;;;;;;5027689;28;20017;-58
2022/12/03 09:22:30;;;;;;;45.33;15.85;;;;;;;;;;5024345;28;20025;-57
2022/12/03 09:24:55;;;;;;;43.53;16.35;;;;;;;;;;5027989;28;20021;-56
2022/12/03 09:27:21;;;;;;;41.87;16.20;;;;;;;;;;5022518;28;20022;-58
2022/12/03 09:29:46;;;;;;;36.00;13.82;;;;;;;;;;5028615;28;20029;-57
2022/12/03 09:32:12;;;;;;;41.97;16.17;;;;;;;;;;5029635;28;20503;-57
2022/12/03 09:34:37;;;;;;;43.13;16.57;;;;;;;;;;5032404;28;20057;-56
2022/12/03 09:37:02;;;;;;;38.50;14.48;;;;;;;;;;5030782;28;20484;-57
2022/12/03 09:39:27;;;;;;;39.27;15.63;;;;;;;;;;5029492;28;20480;-57
2022/12/03 09:41:54;;;;;;;39.87;15.87;;;;;;;;;;5030672;28;20021;-57
2022/12/03 09:44:19;;;;;;;40.45;15.27;;;;;;;;;;5029709;28;20026;-57
2022/12/03 09:46:45;;;;;;;44.80;16.27;;;;;;;;;;5028035;28;20013;-57
2022/12/03 09:49:12;;;;;;;45.28;16.00;;;;;;;;;;5031402;28;20059;-57
2022/12/03 09:51:37;;;;;;;35.75;14.13;;;;;;;;;;5029233;28;20072;-57
2022/12/03 09:54:04;;;;;;;39.30;14.88;;;;;;;;;;5030914;28;20021;-58
2022/12/03 09:56:29;;;;;;;46.30;15.20;;;;;;;;;;5031153;28;20512;-57
2022/12/03 09:58:54;;;;;;;38.53;14.32;;;;;;;;;;5029696;28;20095;-57
2022/12/03 10:01:20;;;;;;;43.63;16.23;;;;;;;;;;5029587;28;20021;-57
2022/12/03 10:03:46;;;;;;;48.17;17.92;;;;;;;;;;5028163;28;20025;-59
2022/12/03 10:06:16;;;;;;;44.13;16.10;;;;;;;;;;5030571;28;20488;-55
2022/12/03 10:08:41;;;;;;;43.22;17.00;;;;;;;;;;5025013;28;20029;-58
2022/12/03 10:11:07;;;;;;;48.53;16.27;;;;;;;;;;5023944;28;20756;-56
2022/12/03 10:13:33;;;;;;;45.47;15.53;;;;;;;;;;5029445;28;20055;-56
2022/12/03 10:15:59;;;;;;;43.78;15.73;;;;;;;;;;5028950;28;20120;-56
2022/12/03 10:18:26;;;;;;;46.55;17.20;;;;;;;;;;5030932;28;20022;-56
2022/12/03 10:20:52;;;;;;;42.85;15.98;;;;;;;;;;5028803;28;20013;-56
2022/12/03 10:23:21;;;;;;;50.53;17.88;;;;;;;;;;5029147;28;20109;-57
2022/12/03 10:25:57;;;;;;;46.17;16.60;;;;;;;;;;5015113;28;20044;-56
2022/12/03 10:28:31;;;;;;;39.67;14.65;;;;;;;;;;5028946;28;20029;-58
2022/12/03 10:30:56;;;;;;;39.55;14.52;;;;;;;;;;5027686;28;20576;-56
2022/12/03 10:33:27;;;;;;;36.05;13.65;;;;;;;;;;5029534;28;20036;-56
2022/12/03 10:35:52;;;;;;;42.85;15.23;;;;;;;;;;5030416;28;20021;-57
2022/12/03 10:38:18;;;;;;;40.60;15.23;;;;;;;;;;5027383;28;20022;-56
2022/12/03 10:40:43;;;;;;;47.42;16.90;;;;;;;;;;5017746;28;20155;-56
2022/12/03 10:43:20;;;;;;;52.97;19.05;;;;;;;;;;5032010;28;20032;-57
2022/12/03 10:45:46;;;;;;;41.38;15.18;;;;;;;;;;5029240;28;20915;-57
2022/12/03 10:48:13;;;;;;;45.80;17.45;;;;;;;;;;5030561;28;20074;-57
2022/12/03 10:50:46;;;;;;;47.13;16.98;;;;;;;;;;5031130;28;20033;-56
2022/12/03 10:53:11;;;;;;;40.15;15.88;;;;;;;;;;5015151;28;20096;-57
2022/12/03 10:55:38;;;;;;;43.00;15.67;;;;;;;;;;5031239;28;20115;-57
2022/12/03 10:58:03;;;;;;;45.03;16.38;;;;;;;;;;5028393;28;20014;-56
2022/12/03 11:00:28;;;;;;;40.33;15.10;;;;;;;;;;5030768;28;20021;-56
2022/12/03 11:02:53;;;;;;;43.63;17.13;;;;;;;;;;5030535;28;20523;-60
2022/12/03 11:05:20;;;;;;;39.13;14.63;;;;;;;;;;5032244;28;20024;-56
2022/12/03 11:07:45;;;;;;;44.20;17.17;;;;;;;;;;5030717;28;20029;-57
2022/12/03 11:10:15;;;;;;;45.70;16.73;;;;;;;;;;5030667;28;20025;-57
2022/12/03 11:12:40;;;;;;;50.10;17.70;;;;;;;;;;5026870;28;20045;-56
2022/12/03 11:15:06;;;;;;;41.95;16.40;;;;;;;;;;5027504;28;20506;-56
2022/12/03 11:17:37;;;;;;;47.78;17.10;;;;;;;;;;5029780;28;20432;-56
2022/12/03 11:20:02;;;;;;;45.38;17.02;;;;;;;;;;5025744;28;20025;-55
2022/12/03 11:22:38;;;;;;;49.87;17.87;;;;;;;;;;5025976;28;20120;-56
2022/12/03 11:25:36;;;;;;;49.15;18.05;;;;;;;;;;5027761;28;20470;-55
2022/12/03 11:28:11;;;;;;;41.13;14.65;;;;;;;;;;5014442;28;20048;-55
2022/12/03 11:30:55;;;;;;;38.83;15.25;;;;;;;;;;5024206;28;20112;-55
2022/12/03 11:33:20;;;;;;;;;;;;;;;;;;5017880;28;20388;-54
2022/12/03 11:36:12;;;;;;;38.38;15.43;;;;;;;;;;5025376;28;19924;-56
2022/12/03 11:38:40;;;;;;;45.28;17.17;;;;;;;;;;5024474;28;20107;-55
2022/12/03 11:41:16;;;;;;;36.88;15.18;;;;;;;;;;5028714;28;20097;-56
2022/12/03 11:43:50;;;;;;;45.10;17.55;;;;;;;;;;5029500;28;20030;-55
2022/12/03 11:46:17;;;;;;;47.30;17.27;;;;;;;;;;5029285;28;20529;-56
2022/12/03 11:48:43;;;;;;;43.33;16.95;;;;;;;;;;5028945;28;20120;-55
2022/12/03 11:51:12;;;;;;;49.45;17.45;;;;;;;;;;5028046;28;20041;-56
2022/12/03 11:53:38;;;;;;;51.85;19.27;;;;;;;;;;5029529;28;20729;-56
2022/12/03 11:56:07;;;;;;;42.47;15.93;;;;;;;;;;5029687;28;20451;-55
2022/12/03 11:58:41;;;;;;;43.83;17.45;;;;;;;;;;5027412;28;20100;-56
2022/12/03 12:01:07;;;;;;;49.17;17.52;;;;;;;;;;5029721;28;20109;-55
2022/12/03 12:03:43;;;;;;;46.17;17.07;;;;;;;;;;5025516;28;20478;-55
2022/12/03 12:06:10;;;;;;;46.80;18.05;;;;;;;;;;5024639;28;20436;-56
2022/12/03 12:08:36;;;;;;;47.17;17.73;;;;;;;;;;5022924;28;20044;-56
2022/12/03 12:11:02;;;;;;;44.17;17.02;;;;;;;;;;5029396;28;20029;-56
2022/12/03 12:13:47;;;;;;;45.57;17.37;;;;;;;;;;5025718;28;20042;-56
2022/12/03 12:16:33;;;;;;;42.58;17.67;;;;;;;;;;5025378;28;20163;-56
2022/12/03 12:19:18;;;;;;;51.67;18.92;;;;;;;;;;5016546;28;20040;-56
2022/12/03 12:21:47;;;;;;;38.33;15.20;;;;;;;;;;5026094;28;20018;-56
2022/12/03 12:24:28;;;;;;;40.60;15.27;;;;;;;;;;5020733;28;20030;-56
2022/12/03 12:26:53;;;;;;;50.75;18.17;;;;;;;;;;5028999;28;20025;-57
2022/12/03 12:29:19;;;;;;;50.55;18.52;;;;;;;;;;5024109;28;20388;-56
2022/12/03 12:31:44;;;;;;;49.07;18.53;;;;;;;;;;5029405;28;20499;-56
2022/12/03 12:34:12;;;;;;;46.53;17.83;;;;;;;;;;5033997;28;20040;-58
2022/12/03 12:36:37;;;;;;;43.45;17.80;;;;;;;;;;5029860;28;20030;-56
2022/12/03 12:39:07;;;;;;;52.03;19.67;;;;;;;;;;5028293;28;20014;-57
2022/12/03 12:41:32;;;;;;;44.25;17.50;;;;;;;;;;5030608;28;20105;-56
2022/12/03 12:43:57;;;;;;;46.40;16.92;;;;;;;;;;5031359;28;20116;-56
2022/12/03 12:46:24;;;;;;;51.00;18.97;;;;;;;;;;5028062;28;20022;-56
2022/12/03 12:48:49;;;;;;;39.58;16.05;;;;;;;;;;5029159;28;20071;-56
2022/12/03 12:51:18;;;;;;;45.50;16.50;;;;;;;;;;5032510;28;20432;-57
2022/12/03 12:53:43;;;;;;;43.90;16.83;;;;;;;;;;5026783;28;20116;-56
2022/12/03 12:59:16;;;;;;;36.50;14.13;;;;;;;;;;5017877;28;20494;-57
2022/12/03 13:01:42;;;;;;;45.03;18.38;;;;;;;;;;5020277;28;20435;-57
2022/12/03 13:04:11;;;;;;;45.13;17.73;;;;;;;;;;5017953;28;20029;-57
2022/12/03 13:06:37;;;;;;;40.50;15.75;;;;;;;;;;5024158;28;20060;-57
2022/12/03 13:09:02;;;;;;;49.88;18.48;;;;;;;;;;5023222;28;20068;-57
2022/12/03 13:11:30;;;;;;;41.58;15.85;;;;;;;;;;5017895;28;20026;-57
2022/12/03 13:13:56;;;;;;;42.40;16.02;;;;;;;;;;5024955;28;20037;-57
2022/12/03 13:16:26;;;;;;;45.67;17.43;;;;;;;;;;5021745;28;20017;-56
2022/12/03 13:18:51;;;;;;;47.22;18.20;;;;;;;;;;5032632;28;20056;-56
2022/12/03 13:21:35;;;;;;;39.22;16.48;;;;;;;;;;5023636;28;20022;-56
2022/12/03 13:24:04;;;;;;;46.60;16.92;;;;;;;;;;5030008;28;20039;-57
2022/12/03 13:26:38;;;;;;;47.45;17.95;;;;;;;;;;5032003;28;20021;-56
2022/12/03 13:29:13;;;;;;;47.63;17.88;;;;;;;;;;5028879;28;20058;-56
2022/12/03 13:31:39;;;;;;;42.05;17.13;;;;;;;;;;5027345;28;20021;-57
2022/12/03 13:34:17;;;;;;;39.40;14.90;;;;;;;;;;5034397;28;20451;-57
2022/12/03 13:36:43;;;;;;;40.38;15.07;;;;;;;;;;5022590;28;20416;-56
2022/12/03 13:39:12;;;;;;;42.92;17.92;;;;;;;;;;5029622;28;20117;-56
2022/12/03 13:44:20;;;;;;;30.30;13.07;;;;;;;;;;5038111;28;20031;-56
2022/12/03 13:46:46;;;;;;;35.67;15.00;;;;;;;;;;5034785;28;20104;-57
2022/12/03 13:49:12;;;;;;;36.20;13.97;;;;;;;;;;5044573;28;20028;-56
2022/12/03 13:51:38;;;;;;;32.78;13.43;;;;;;;;;;5039938;28;20018;-57
2022/12/03 13:54:04;;;;;;;35.72;14.65;;;;;;;;;;5041212;28;20105;-57
2022/12/03 13:56:30;;;;;;;26.52;11.65;;;;;;;;;;5029980;28;20021;-56
2022/12/03 13:59:31;;;;;;;25.08;11.57;;;;;;;;;;5023299;28;20485;-57
2022/12/03 14:01:56;;;;;;;23.70;10.70;;;;;;;;;;5012944;28;20038;-56
2022/12/03 14:04:22;;;;;;;23.88;11.23;;;;;;;;;;5026744;28;20029;-56
2022/12/03 14:06:47;;;;;;;23.70;10.80;;;;;;;;;;5021903;28;20064;-56
2022/12/03 14:09:12;;;;;;;25.45;11.85;;;;;;;;;;5022637;28;20032;-57
2022/12/03 14:14:21;;;;;;;23.45;10.80;;;;;;;;;;5027530;28;20534;-56
2022/12/03 14:16:46;;;;;;;28.30;12.73;;;;;;;;;;5028024;28;20013;-57
2022/12/03 14:19:12;;;;;;;26.37;11.00;;;;;;;;;;5027947;28;20031;-57
2022/12/03 14:21:37;;;;;;;26.10;10.70;;;;;;;;;;5018348;28;20017;-56
2022/12/03 14:24:02;;;;;;;24.13;10.60;;;;;;;;;;5028092;28;20021;-56
2022/12/03 14:26:27;;;;;;;23.60;10.43;;;;;;;;;;5029384;28;20021;-56
2022/12/03 14:28:53;;;;;;;25.13;10.63;;;;;;;;;;5028229;28;20459;-56
2022/12/03 14:31:18;;;;;;;27.27;11.33;;;;;;;;;;5028962;28;20585;-56
2022/12/03 14:33:43;;;;;;;28.50;12.17;;;;;;;;;;5029609;28;20077;-56
2022/12/03 14:36:08;;;;;;;26.53;12.00;;;;;;;;;;5029602;28;20018;-57
2022/12/03 14:38:33;;;;;;;31.77;11.73;;;;;;;;;;5020575;28;20021;-56
2022/12/03 14:40:58;;;;;;;24.97;10.60;;;;;;;;;;5027535;28;20065;-56